Arnegard, ND (58835)

6:07 AM CDT on August 28, 2014 (GMT -0500)
Watford City | Change Station
CLOSE
Current Station
Airport
Location: Watford City,
Elevation: 2110 ft
Nearby Weather Stations

Elev 2110 ft 47.80 °N, 103.26 °W | Updated 12 minutes ago

Clear
Clear
59 °F
Feels Like 59 °F
N
4
Wind Variable Wind from SE

Today
High -- | Low -- °F
--% Chance of Precip.
Yesterday
High -- | Low -- °F
Precip. -- in
7:06 AM 8:42 PM
Waxing Crescent, 7% visible
Pressure 29.89 in
Visibility 10.0 miles
Clouds Clear
Dew Point 57 °F
Humidity 94%
Rainfall 0.00 in
Snow Depth Not available.
UV 0 out of 12
Pollen 9.30 out of 12
Air Quality Not available.
Flu Activity Not available.
METAR KS25 281055Z AUTO 14003KT 10SM CLR 15/14 A2989 RMK AO2

More Conditions Fewer Conditions

Pressure 29.89 in
Visibility 10.0 miles
Clouds Clear
Dew Point 57 °F
Humidity 94%
Rainfall 0.00 in
Snow Depth Not available.
UV 0 out of 12
Pollen 9.30 out of 12
Air Quality Not available.
Flu Activity Not available.
METAR KS25 281055Z AUTO 14003KT 10SM CLR 15/14 A2989 RMK AO2

More Conditions Fewer Conditions

10-Day Weather Forecast

Almanac

Astronomy

Aug. 28, 2014 Rise Set
Actual Time 7:06 AM CDT 8:42 PM CDT
Civil Twilight 6:34 AM CDT 9:14 PM CDT
Nautical Twilight 5:54 AM CDT 9:53 PM CDT
Astronomical Twilight 5:11 AM CDT 10:36 PM CDT
Moon 10:17 AM CDT 9:49 PM CDT
Length of Visible Light 14h 40m
Length of Day
13h 35m
Tomorrow will be 3m 18s shorter.
Waxing Crescent, 7% of the Moon is Illuminated
Today
Waxing Crescent
Sep 2
First Quarter
Sep 8
Full
Sep 15
Last Quarter
Sep 24
New

Today's Extremes

State Highs State Lows

Community

WunderPhotos

Upload Photos

1,747,923 photos uploaded!

Nearby

Snow Depth

Station Depth Elevation
No new snow has been reported.

Earthquake Activity

City Distance Mag. Time & Date
No recent earthquake activity has been reported nearby.
Minimum magnitude displayed is 2.5.

Coastal Water Temperatures

Place Temperature
No Stations Reporting

Nearby Weather Stations